sensor_id;sensor_type;location;lat;lon;timestamp;pressure;altitude;pressure_sealevel;temperature;humidity
66560;BME280;53413;49.878;8.142;2022-10-16T00:01:42;99732.56;;;14.08;100.00
66560;BME280;53413;49.878;8.142;2022-10-16T00:04:08;99728.50;;;14.02;100.00
66560;BME280;53413;49.878;8.142;2022-10-16T00:06:34;99733.03;;;14.00;100.00
66560;BME280;53413;49.878;8.142;2022-10-16T00:08:59;99734.91;;;13.98;100.00
66560;BME280;53413;49.878;8.142;2022-10-16T00:11:27;99738.47;;;13.97;100.00
66560;BME280;53413;49.878;8.142;2022-10-16T00:13:58;99727.94;;;13.97;100.00
66560;BME280;53413;49.878;8.142;2022-10-16T00:16:24;99728.28;;;13.91;100.00
66560;BME280;53413;49.878;8.142;2022-10-16T00:18:50;99725.84;;;13.88;100.00
66560;BME280;53413;49.878;8.142;2022-10-16T00:21:18;99728.47;;;13.88;100.00
66560;BME280;53413;49.878;8.142;2022-10-16T00:23:44;99729.19;;;13.90;100.00
66560;BME280;53413;49.878;8.142;2022-10-16T00:26:12;99743.25;;;13.90;100.00
66560;BME280;53413;49.878;8.142;2022-10-16T00:28:38;99737.72;;;13.95;100.00
66560;BME280;53413;49.878;8.142;2022-10-16T00:31:06;99739.13;;;14.00;100.00
66560;BME280;53413;49.878;8.142;2022-10-16T00:33:32;99737.19;;;14.04;100.00
66560;BME280;53413;49.878;8.142;2022-10-16T00:36:02;99717.38;;;14.13;100.00
66560;BME280;53413;49.878;8.142;2022-10-16T00:38:28;99728.50;;;14.18;100.00
66560;BME280;53413;49.878;8.142;2022-10-16T00:40:53;99735.47;;;14.19;100.00
66560;BME280;53413;49.878;8.142;2022-10-16T00:46:16;99728.78;;;14.28;100.00
66560;BME280;53413;49.878;8.142;2022-10-16T00:48:47;99740.88;;;14.32;100.00
66560;BME280;53413;49.878;8.142;2022-10-16T00:51:14;99732.78;;;14.35;100.00
66560;BME280;53413;49.878;8.142;2022-10-16T00:53:39;99740.41;;;14.40;100.00
66560;BME280;53413;49.878;8.142;2022-10-16T00:56:05;99743.13;;;14.38;100.00
66560;BME280;53413;49.878;8.142;2022-10-16T00:58:31;99745.69;;;14.40;100.00
66560;BME280;53413;49.878;8.142;2022-10-16T01:00:57;99752.41;;;14.45;100.00
66560;BME280;53413;49.878;8.142;2022-10-16T01:03:34;99752.56;;;14.42;100.00
66560;BME280;53413;49.878;8.142;2022-10-16T01:06:20;99738.28;;;14.46;100.00
66560;BME280;53413;49.878;8.142;2022-10-16T01:09:11;99744.38;;;14.47;100.00
66560;BME280;53413;49.878;8.142;2022-10-16T01:14:21;99753.66;;;14.38;100.00
66560;BME280;53413;49.878;8.142;2022-10-16T01:16:59;99760.84;;;14.36;100.00
66560;BME280;53413;49.878;8.142;2022-10-16T01:22:17;99755.56;;;14.36;100.00
66560;BME280;53413;49.878;8.142;2022-10-16T01:24:48;99767.81;;;14.37;100.00
66560;BME280;53413;49.878;8.142;2022-10-16T01:27:15;99760.63;;;14.39;100.00
66560;BME280;53413;49.878;8.142;2022-10-16T01:32:42;99765.34;;;14.34;100.00
66560;BME280;53413;49.878;8.142;2022-10-16T01:35:35;99767.22;;;14.32;100.00
66560;BME280;53413;49.878;8.142;2022-10-16T01:38:06;99763.06;;;14.28;100.00
66560;BME280;53413;49.878;8.142;2022-10-16T01:40:34;99758.72;;;14.27;100.00
66560;BME280;53413;49.878;8.142;2022-10-16T01:43:14;99756.09;;;14.27;100.00
66560;BME280;53413;49.878;8.142;2022-10-16T01:45:41;99774.38;;;14.30;100.00
66560;BME280;53413;49.878;8.142;2022-10-16T01:48:07;99775.72;;;14.37;100.00
66560;BME280;53413;49.878;8.142;2022-10-16T01:50:37;99779.53;;;14.47;100.00
66560;BME280;53413;49.878;8.142;2022-10-16T01:53:07;99767.75;;;14.53;100.00
66560;BME280;53413;49.878;8.142;2022-10-16T01:55:38;99764.00;;;14.57;100.00
66560;BME280;53413;49.878;8.142;2022-10-16T01:58:07;99768.06;;;14.63;100.00
66560;BME280;53413;49.878;8.142;2022-10-16T02:00:37;99757.31;;;14.66;100.00
66560;BME280;53413;49.878;8.142;2022-10-16T02:03:04;99759.72;;;14.71;100.00
66560;BME280;53413;49.878;8.142;2022-10-16T02:05:44;99762.84;;;14.77;100.00
66560;BME280;53413;49.878;8.142;2022-10-16T02:08:10;99767.00;;;14.82;100.00
66560;BME280;53413;49.878;8.142;2022-10-16T02:10:37;99767.66;;;14.85;100.00
66560;BME280;53413;49.878;8.142;2022-10-16T02:13:19;99772.84;;;14.87;100.00
66560;BME280;53413;49.878;8.142;2022-10-16T02:15:47;99771.06;;;14.87;100.00
66560;BME280;53413;49.878;8.142;2022-10-16T02:18:12;99778.13;;;14.87;100.00
66560;BME280;53413;49.878;8.142;2022-10-16T02:20:46;99772.84;;;14.87;100.00
66560;BME280;53413;49.878;8.142;2022-10-16T02:23:30;99775.19;;;14.91;100.00
66560;BME280;53413;49.878;8.142;2022-10-16T02:26:00;99774.94;;;14.96;100.00
66560;BME280;53413;49.878;8.142;2022-10-16T02:28:43;99778.31;;;14.98;100.00
66560;BME280;53413;49.878;8.142;2022-10-16T02:31:12;99775.50;;;15.01;100.00
66560;BME280;53413;49.878;8.142;2022-10-16T02:33:41;99779.84;;;15.02;100.00
66560;BME280;53413;49.878;8.142;2022-10-16T02:36:09;99787.84;;;15.01;100.00
66560;BME280;53413;49.878;8.142;2022-10-16T02:38:35;99797.38;;;15.03;100.00
66560;BME280;53413;49.878;8.142;2022-10-16T02:41:01;99797.38;;;15.03;100.00
66560;BME280;53413;49.878;8.142;2022-10-16T02:43:27;99795.50;;;15.05;100.00
66560;BME280;53413;49.878;8.142;2022-10-16T02:45:52;99791.91;;;15.06;100.00
66560;BME280;53413;49.878;8.142;2022-10-16T02:48:18;99794.44;;;15.08;100.00
66560;BME280;53413;49.878;8.142;2022-10-16T02:50:43;99797.38;;;15.03;100.00
66560;BME280;53413;49.878;8.142;2022-10-16T02:53:08;99791.25;;;15.03;100.00
66560;BME280;53413;49.878;8.142;2022-10-16T02:55:34;99793.13;;;15.01;100.00
66560;BME280;53413;49.878;8.142;2022-10-16T02:57:59;99797.38;;;15.03;100.00
66560;BME280;53413;49.878;8.142;2022-10-16T03:00:24;99803.41;;;15.05;100.00
66560;BME280;53413;49.878;8.142;2022-10-16T03:02:50;99788.22;;;15.09;100.00
66560;BME280;53413;49.878;8.142;2022-10-16T03:05:16;99789.00;;;15.11;100.00
66560;BME280;53413;49.878;8.142;2022-10-16T03:07:41;99798.69;;;15.11;100.00
66560;BME280;53413;49.878;8.142;2022-10-16T03:10:07;99801.31;;;15.11;100.00
66560;BME280;53413;49.878;8.142;2022-10-16T03:12:32;99802.94;;;15.13;100.00
66560;BME280;53413;49.878;8.142;2022-10-16T03:14:58;99803.88;;;15.12;100.00
66560;BME280;53413;49.878;8.142;2022-10-16T03:17:24;99811.63;;;15.15;100.00
66560;BME280;53413;49.878;8.142;2022-10-16T03:19:49;99810.75;;;15.15;100.00
66560;BME280;53413;49.878;8.142;2022-10-16T03:22:15;99814.34;;;15.14;100.00
66560;BME280;53413;49.878;8.142;2022-10-16T03:24:40;99804.66;;;15.14;100.00
66560;BME280;53413;49.878;8.142;2022-10-16T03:27:06;99818.84;;;15.12;100.00
66560;BME280;53413;49.878;8.142;2022-10-16T03:29:31;99807.34;;;15.13;100.00
66560;BME280;53413;49.878;8.142;2022-10-16T03:31:58;99803.72;;;15.15;100.00
66560;BME280;53413;49.878;8.142;2022-10-16T03:34:24;99803.97;;;15.11;100.00
66560;BME280;53413;49.878;8.142;2022-10-16T03:36:49;99789.34;;;15.05;100.00
66560;BME280;53413;49.878;8.142;2022-10-16T03:39:15;99808.47;;;14.94;100.00
66560;BME280;53413;49.878;8.142;2022-10-16T03:41:40;99823.72;;;14.89;100.00
66560;BME280;53413;49.878;8.142;2022-10-16T03:44:05;99830.53;;;14.93;100.00
66560;BME280;53413;49.878;8.142;2022-10-16T03:46:31;99832.13;;;14.96;100.00
66560;BME280;53413;49.878;8.142;2022-10-16T03:48:56;99822.16;;;15.01;100.00
66560;BME280;53413;49.878;8.142;2022-10-16T03:51:22;99812.44;;;15.01;100.00
66560;BME280;53413;49.878;8.142;2022-10-16T03:53:47;99815.94;;;15.02;100.00
66560;BME280;53413;49.878;8.142;2022-10-16T03:56:13;99811.31;;;15.05;100.00
66560;BME280;53413;49.878;8.142;2022-10-16T03:58:38;99820.00;;;15.07;100.00
66560;BME280;53413;49.878;8.142;2022-10-16T04:01:04;99834.91;;;15.08;100.00
66560;BME280;53413;49.878;8.142;2022-10-16T04:03:29;99822.53;;;15.09;100.00
66560;BME280;53413;49.878;8.142;2022-10-16T04:05:54;99823.31;;;15.11;100.00
66560;BME280;53413;49.878;8.142;2022-10-16T04:08:20;99819.78;;;15.11;100.00
66560;BME280;53413;49.878;8.142;2022-10-16T04:10:45;99815.66;;;15.06;100.00
66560;BME280;53413;49.878;8.142;2022-10-16T04:13:11;99811.59;;;15.01;100.00
66560;BME280;53413;49.878;8.142;2022-10-16T04:15:37;99808.66;;;14.91;100.00
66560;BME280;53413;49.878;8.142;2022-10-16T04:18:03;99805.53;;;14.84;100.00
66560;BME280;53413;49.878;8.142;2022-10-16T04:20:28;99813.91;;;14.76;100.00
66560;BME280;53413;49.878;8.142;2022-10-16T04:22:53;99811.44;;;14.73;100.00
66560;BME280;53413;49.878;8.142;2022-10-16T04:25:19;99819.63;;;14.69;100.00
66560;BME280;53413;49.878;8.142;2022-10-16T04:27:44;99828.53;;;14.66;100.00
66560;BME280;53413;49.878;8.142;2022-10-16T04:30:10;99830.50;;;14.62;100.00
66560;BME280;53413;49.878;8.142;2022-10-16T04:32:35;99829.75;;;14.60;100.00
66560;BME280;53413;49.878;8.142;2022-10-16T04:35:00;99829.06;;;14.57;100.00
66560;BME280;53413;49.878;8.142;2022-10-16T04:37:27;99832.75;;;14.54;100.00
66560;BME280;53413;49.878;8.142;2022-10-16T04:39:53;99833.94;;;14.49;100.00
66560;BME280;53413;49.878;8.142;2022-10-16T04:42:19;99833.34;;;14.43;100.00
66560;BME280;53413;49.878;8.142;2022-10-16T04:44:45;99835.66;;;14.34;100.00
66560;BME280;53413;49.878;8.142;2022-10-16T04:47:10;99844.00;;;14.26;100.00
66560;BME280;53413;49.878;8.142;2022-10-16T04:49:36;99841.63;;;14.21;100.00
66560;BME280;53413;49.878;8.142;2022-10-16T04:52:01;99837.22;;;14.22;100.00
66560;BME280;53413;49.878;8.142;2022-10-16T04:54:27;99844.00;;;14.26;100.00
66560;BME280;53413;49.878;8.142;2022-10-16T04:56:52;99848.06;;;14.31;100.00
66560;BME280;53413;49.878;8.142;2022-10-16T04:59:19;99844.25;;;14.37;100.00
66560;BME280;53413;49.878;8.142;2022-10-16T05:01:44;99844.16;;;14.39;100.00
66560;BME280;53413;49.878;8.142;2022-10-16T05:04:10;99840.44;;;14.43;100.00
66560;BME280;53413;49.878;8.142;2022-10-16T05:06:37;99839.38;;;14.45;100.00
66560;BME280;53413;49.878;8.142;2022-10-16T05:09:04;99837.03;;;14.41;100.00
66560;BME280;53413;49.878;8.142;2022-10-16T05:11:29;99840.09;;;14.33;100.00
66560;BME280;53413;49.878;8.142;2022-10-16T05:13:55;99844.84;;;14.26;100.00
66560;BME280;53413;49.878;8.142;2022-10-16T05:16:20;99843.50;;;14.19;100.00
66560;BME280;53413;49.878;8.142;2022-10-16T05:18:45;99831.50;;;14.13;100.00
66560;BME280;53413;49.878;8.142;2022-10-16T05:21:11;99834.66;;;14.04;100.00
66560;BME280;53413;49.878;8.142;2022-10-16T05:23:36;99833.31;;;13.97;100.00
66560;BME280;53413;49.878;8.142;2022-10-16T05:26:01;99834.50;;;13.91;100.00
66560;BME280;53413;49.878;8.142;2022-10-16T05:28:28;99842.66;;;13.87;100.00
66560;BME280;53413;49.878;8.142;2022-10-16T05:30:54;99849.00;;;13.82;100.00
66560;BME280;53413;49.878;8.142;2022-10-16T05:33:22;99844.00;;;13.78;100.00
66560;BME280;53413;49.878;8.142;2022-10-16T05:35:48;99853.84;;;13.74;100.00
66560;BME280;53413;49.878;8.142;2022-10-16T05:38:15;99857.56;;;13.70;100.00
66560;BME280;53413;49.878;8.142;2022-10-16T05:40:40;99860.97;;;13.72;100.00
66560;BME280;53413;49.878;8.142;2022-10-16T05:43:05;99863.47;;;13.75;100.00
66560;BME280;53413;49.878;8.142;2022-10-16T05:45:31;99872.88;;;13.79;100.00
66560;BME280;53413;49.878;8.142;2022-10-16T05:47:56;99862.78;;;13.88;100.00
66560;BME280;53413;49.878;8.142;2022-10-16T05:50:21;99878.09;;;13.97;100.00
66560;BME280;53413;49.878;8.142;2022-10-16T05:52:47;99876.81;;;14.04;100.00
66560;BME280;53413;49.878;8.142;2022-10-16T05:55:12;99878.19;;;14.11;100.00
66560;BME280;53413;49.878;8.142;2022-10-16T05:57:38;99881.34;;;14.18;100.00
66560;BME280;53413;49.878;8.142;2022-10-16T06:00:04;99875.63;;;14.26;100.00
66560;BME280;53413;49.878;8.142;2022-10-16T06:02:29;99881.66;;;14.28;100.00
66560;BME280;53413;49.878;8.142;2022-10-16T06:04:55;99889.25;;;14.34;100.00
66560;BME280;53413;49.878;8.142;2022-10-16T06:07:21;99888.03;;;14.40;100.00
66560;BME280;53413;49.878;8.142;2022-10-16T06:09:53;99882.59;;;14.43;100.00
66560;BME280;53413;49.878;8.142;2022-10-16T06:12:19;99888.44;;;14.48;100.00
66560;BME280;53413;49.878;8.142;2022-10-16T06:14:45;99890.06;;;14.51;100.00
66560;BME280;53413;49.878;8.142;2022-10-16T06:17:13;99880.28;;;14.53;100.00
66560;BME280;53413;49.878;8.142;2022-10-16T06:19:38;99878.31;;;14.56;100.00
66560;BME280;53413;49.878;8.142;2022-10-16T06:22:04;99878.31;;;14.56;100.00
66560;BME280;53413;49.878;8.142;2022-10-16T06:24:29;99881.03;;;14.55;100.00
66560;BME280;53413;49.878;8.142;2022-10-16T06:26:54;99882.16;;;14.51;100.00
66560;BME280;53413;49.878;8.142;2022-10-16T06:29:20;99888.44;;;14.48;100.00
66560;BME280;53413;49.878;8.142;2022-10-16T06:31:45;99887.69;;;14.46;100.00
66560;BME280;53413;49.878;8.142;2022-10-16T06:34:11;99899.25;;;14.43;100.00
66560;BME280;53413;49.878;8.142;2022-10-16T06:36:37;99899.09;;;14.46;100.00
66560;BME280;53413;49.878;8.142;2022-10-16T06:39:04;99891.94;;;14.49;100.00
66560;BME280;53413;49.878;8.142;2022-10-16T06:41:30;99900.44;;;14.54;100.00
66560;BME280;53413;49.878;8.142;2022-10-16T06:43:56;99897.53;;;14.58;100.00
66560;BME280;53413;49.878;8.142;2022-10-16T06:46:23;99899.91;;;14.63;100.00
66560;BME280;53413;49.878;8.142;2022-10-16T06:48:49;99900.69;;;14.65;100.00
66560;BME280;53413;49.878;8.142;2022-10-16T06:51:20;99906.16;;;14.78;100.00
66560;BME280;53413;49.878;8.142;2022-10-16T06:53:48;99910.03;;;14.87;100.00
66560;BME280;53413;49.878;8.142;2022-10-16T06:56:20;99916.72;;;14.92;100.00
66560;BME280;53413;49.878;8.142;2022-10-16T06:58:47;99912.16;;;14.96;100.00
66560;BME280;53413;49.878;8.142;2022-10-16T07:01:13;99919.69;;;15.02;100.00
66560;BME280;53413;49.878;8.142;2022-10-16T07:03:40;99924.63;;;15.08;100.00
66560;BME280;53413;49.878;8.142;2022-10-16T07:06:07;99929.63;;;15.13;100.00
66560;BME280;53413;49.878;8.142;2022-10-16T07:08:34;99933.88;;;15.16;100.00
66560;BME280;53413;49.878;8.142;2022-10-16T07:11:00;99937.84;;;15.23;100.00
66560;BME280;53413;49.878;8.142;2022-10-16T07:13:27;99938.25;;;15.31;100.00
66560;BME280;53413;49.878;8.142;2022-10-16T07:15:52;99936.19;;;15.36;100.00
66560;BME280;53413;49.878;8.142;2022-10-16T07:18:17;99936.19;;;15.36;100.00
66560;BME280;53413;49.878;8.142;2022-10-16T07:20:43;99939.47;;;15.40;100.00
66560;BME280;53413;49.878;8.142;2022-10-16T07:23:09;99942.13;;;15.40;100.00
66560;BME280;53413;49.878;8.142;2022-10-16T07:25:34;99948.16;;;15.42;100.00
66560;BME280;53413;49.878;8.142;2022-10-16T07:27:59;99954.31;;;15.43;100.00
66560;BME280;53413;49.878;8.142;2022-10-16T07:30:24;99956.56;;;15.49;100.00
66560;BME280;53413;49.878;8.142;2022-10-16T07:32:50;99968.56;;;15.54;100.00
66560;BME280;53413;49.878;8.142;2022-10-16T07:35:15;99964.03;;;15.57;100.00
66560;BME280;53413;49.878;8.142;2022-10-16T07:37:45;99975.09;;;15.63;100.00
66560;BME280;53413;49.878;8.142;2022-10-16T07:40:11;99961.53;;;15.69;100.00
66560;BME280;53413;49.878;8.142;2022-10-16T07:42:36;99963.78;;;15.76;100.00
66560;BME280;53413;49.878;8.142;2022-10-16T07:45:01;99970.59;;;15.80;100.00
66560;BME280;53413;49.878;8.142;2022-10-16T07:47:27;99972.06;;;15.84;100.00
66560;BME280;53413;49.878;8.142;2022-10-16T07:49:52;99978.75;;;15.91;100.00
66560;BME280;53413;49.878;8.142;2022-10-16T07:52:19;99989.78;;;15.98;100.00
66560;BME280;53413;49.878;8.142;2022-10-16T07:54:44;99991.56;;;16.12;100.00
66560;BME280;53413;49.878;8.142;2022-10-16T07:57:10;99988.94;;;16.26;100.00
66560;BME280;53413;49.878;8.142;2022-10-16T07:59:35;99995.78;;;16.43;100.00
66560;BME280;53413;49.878;8.142;2022-10-16T08:02:00;99995.09;;;16.54;100.00
66560;BME280;53413;49.878;8.142;2022-10-16T08:04:26;100011.53;;;16.59;100.00
66560;BME280;53413;49.878;8.142;2022-10-16T08:06:51;100017.00;;;16.56;100.00
66560;BME280;53413;49.878;8.142;2022-10-16T08:09:17;100025.44;;;16.49;100.00
66560;BME280;53413;49.878;8.142;2022-10-16T08:11:42;100018.66;;;16.44;100.00
66560;BME280;53413;49.878;8.142;2022-10-16T08:14:07;100023.09;;;16.44;100.00
66560;BME280;53413;49.878;8.142;2022-10-16T08:16:33;100025.84;;;16.42;100.00
66560;BME280;53413;49.878;8.142;2022-10-16T08:18:58;100028.38;;;16.44;100.00
66560;BME280;53413;49.878;8.142;2022-10-16T08:21:23;100035.94;;;16.50;100.00
66560;BME280;53413;49.878;8.142;2022-10-16T08:23:50;100043.47;;;16.56;100.00
66560;BME280;53413;49.878;8.142;2022-10-16T08:26:15;100051.31;;;16.58;100.00
66560;BME280;53413;49.878;8.142;2022-10-16T08:28:41;100038.66;;;16.63;100.00
66560;BME280;53413;49.878;8.142;2022-10-16T08:31:07;100040.44;;;16.77;100.00
66560;BME280;53413;49.878;8.142;2022-10-16T08:33:33;100034.34;;;16.89;100.00
66560;BME280;53413;49.878;8.142;2022-10-16T08:36:00;100040.56;;;17.03;100.00
66560;BME280;53413;49.878;8.142;2022-10-16T08:38:25;100037.22;;;17.14;100.00
66560;BME280;53413;49.878;8.142;2022-10-16T08:40:51;100035.03;;;17.20;100.00
66560;BME280;53413;49.878;8.142;2022-10-16T08:43:35;100051.06;;;17.32;100.00
66560;BME280;53413;49.878;8.142;2022-10-16T08:48:58;100064.63;;;17.40;100.00
66560;BME280;53413;49.878;8.142;2022-10-16T08:51:27;100064.75;;;17.38;100.00
66560;BME280;53413;49.878;8.142;2022-10-16T08:53:59;100062.75;;;17.42;100.00
66560;BME280;53413;49.878;8.142;2022-10-16T08:56:27;100056.63;;;17.54;100.00
66560;BME280;53413;49.878;8.142;2022-10-16T08:58:53;100067.41;;;17.79;100.00
66560;BME280;53413;49.878;8.142;2022-10-16T09:01:22;100067.13;;;18.09;100.00
66560;BME280;53413;49.878;8.142;2022-10-16T09:07:16;100064.16;;;18.40;100.00
66560;BME280;53413;49.878;8.142;2022-10-16T09:12:52;100073.59;;;19.43;100.00
66560;BME280;53413;49.878;8.142;2022-10-16T09:18:07;100063.19;;;20.68;100.00
66560;BME280;53413;49.878;8.142;2022-10-16T09:20:52;100060.91;;;20.74;100.00
66560;BME280;53413;49.878;8.142;2022-10-16T09:23:30;100072.81;;;21.14;100.00
66560;BME280;53413;49.878;8.142;2022-10-16T09:25:58;100061.50;;;21.66;100.00
66560;BME280;53413;49.878;8.142;2022-10-16T09:28:23;100073.31;;;21.52;100.00
66560;BME280;53413;49.878;8.142;2022-10-16T09:30:49;100079.06;;;21.25;100.00
66560;BME280;53413;49.878;8.142;2022-10-16T09:33:16;100087.41;;;20.76;100.00
66560;BME280;53413;49.878;8.142;2022-10-16T09:35:47;100086.94;;;20.25;100.00
66560;BME280;53413;49.878;8.142;2022-10-16T09:38:25;100092.09;;;19.80;100.00
66560;BME280;53413;49.878;8.142;2022-10-16T09:40:50;100094.25;;;19.63;100.00
66560;BME280;53413;49.878;8.142;2022-10-16T09:43:26;100097.28;;;19.46;100.00
66560;BME280;53413;49.878;8.142;2022-10-16T09:45:55;100103.31;;;19.36;100.00
66560;BME280;53413;49.878;8.142;2022-10-16T09:48:21;100107.25;;;19.31;100.00
66560;BME280;53413;49.878;8.142;2022-10-16T09:50:58;100115.91;;;19.21;100.00
66560;BME280;53413;49.878;8.142;2022-10-16T09:53:26;100125.19;;;19.16;100.00
66560;BME280;53413;49.878;8.142;2022-10-16T09:56:01;100128.78;;;19.15;100.00
66560;BME280;53413;49.878;8.142;2022-10-16T09:58:29;100124.84;;;19.20;100.00
66560;BME280;53413;49.878;8.142;2022-10-16T10:00:54;100116.38;;;19.40;100.00
66560;BME280;53413;49.878;8.142;2022-10-16T10:03:46;100112.59;;;19.91;100.00
66560;BME280;53413;49.878;8.142;2022-10-16T10:06:28;100102.41;;;20.54;100.00
66560;BME280;53413;49.878;8.142;2022-10-16T10:08:54;100099.94;;;21.19;100.00
66560;BME280;53413;49.878;8.142;2022-10-16T10:14:24;100100.53;;;21.67;100.00
66560;BME280;53413;49.878;8.142;2022-10-16T10:17:12;100095.31;;;21.87;100.00
66560;BME280;53413;49.878;8.142;2022-10-16T10:19:50;100101.25;;;21.69;100.00
66560;BME280;53413;49.878;8.142;2022-10-16T10:22:38;100094.41;;;21.76;100.00
66560;BME280;53413;49.878;8.142;2022-10-16T10:36:25;100094.13;;;22.84;100.00
66560;BME280;53413;49.878;8.142;2022-10-16T10:39:00;100099.25;;;22.97;100.00
66560;BME280;53413;49.878;8.142;2022-10-16T10:44:11;100100.41;;;23.14;100.00
66560;BME280;53413;49.878;8.142;2022-10-16T11:06:08;100103.53;;;21.95;100.00
66560;BME280;53413;49.878;8.142;2022-10-16T11:09:06;100097.59;;;21.91;100.00
66560;BME280;53413;49.878;8.142;2022-10-16T11:16:56;100104.84;;;21.79;100.00
66560;BME280;53413;49.878;8.142;2022-10-16T11:22:18;100108.56;;;21.88;100.00
66560;BME280;53413;49.878;8.142;2022-10-16T11:25:11;100103.72;;;21.82;100.00
66560;BME280;53413;49.878;8.142;2022-10-16T11:27:43;100103.97;;;21.79;100.00
66560;BME280;53413;49.878;8.142;2022-10-16T11:30:24;100113.75;;;21.57;100.00
66560;BME280;53413;49.878;8.142;2022-10-16T11:35:51;100103.84;;;21.48;100.00
66560;BME280;53413;49.878;8.142;2022-10-16T11:40:45;100096.44;;;21.84;100.00
66560;BME280;53413;49.878;8.142;2022-10-16T11:43:24;100092.09;;;22.04;100.00
66560;BME280;53413;49.878;8.142;2022-10-16T11:45:55;100077.34;;;22.31;100.00
66560;BME280;53413;49.878;8.142;2022-10-16T11:48:31;100081.88;;;21.88;100.00
66560;BME280;53413;49.878;8.142;2022-10-16T11:51:12;100094.75;;;21.50;100.00
66560;BME280;53413;49.878;8.142;2022-10-16T11:56:12;100104.03;;;21.56;100.00
66560;BME280;53413;49.878;8.142;2022-10-16T12:03:54;100091.09;;;21.63;100.00
66560;BME280;53413;49.878;8.142;2022-10-16T12:08:58;100098.41;;;21.38;100.00
66560;BME280;53413;49.878;8.142;2022-10-16T12:16:50;100107.72;;;21.00;100.00
66560;BME280;53413;49.878;8.142;2022-10-16T12:19:17;100109.69;;;20.98;100.00
66560;BME280;53413;49.878;8.142;2022-10-16T12:21:43;100108.22;;;21.05;100.00
66560;BME280;53413;49.878;8.142;2022-10-16T12:26:56;100094.00;;;21.27;100.00
66560;BME280;53413;49.878;8.142;2022-10-16T12:29:31;100103.22;;;21.12;100.00
66560;BME280;53413;49.878;8.142;2022-10-16T12:31:57;100108.59;;;20.89;100.00
66560;BME280;53413;49.878;8.142;2022-10-16T12:36:55;100112.25;;;20.76;100.00
66560;BME280;53413;49.878;8.142;2022-10-16T12:39:32;100105.22;;;20.75;100.00
66560;BME280;53413;49.878;8.142;2022-10-16T12:42:05;100112.47;;;20.85;100.00
66560;BME280;53413;49.878;8.142;2022-10-16T12:44:33;100115.59;;;21.01;100.00
66560;BME280;53413;49.878;8.142;2022-10-16T12:47:00;100098.97;;;21.20;100.00
66560;BME280;53413;49.878;8.142;2022-10-16T12:51:54;100100.16;;;21.28;100.00
66560;BME280;53413;49.878;8.142;2022-10-16T13:05:08;100093.94;;;22.35;100.00
66560;BME280;53413;49.878;8.142;2022-10-16T13:10:46;100094.44;;;22.50;100.00
66560;BME280;53413;49.878;8.142;2022-10-16T13:24:22;100112.56;;;22.04;100.00
66560;BME280;53413;49.878;8.142;2022-10-16T13:29:41;100119.53;;;21.74;100.00
66560;BME280;53413;49.878;8.142;2022-10-16T13:32:09;100106.31;;;21.72;100.00
66560;BME280;53413;49.878;8.142;2022-10-16T13:34:48;100097.47;;;21.72;100.00
66560;BME280;53413;49.878;8.142;2022-10-16T13:37:22;100097.00;;;21.66;100.00
66560;BME280;53413;49.878;8.142;2022-10-16T13:39:48;100090.59;;;21.58;100.00
66560;BME280;53413;49.878;8.142;2022-10-16T13:42:24;100096.97;;;21.45;100.00
66560;BME280;53413;49.878;8.142;2022-10-16T13:47:18;100100.16;;;21.28;100.00
66560;BME280;53413;49.878;8.142;2022-10-16T13:49:44;100088.56;;;21.17;100.00
66560;BME280;53413;49.878;8.142;2022-10-16T13:52:18;100091.72;;;21.11;100.00
66560;BME280;53413;49.878;8.142;2022-10-16T13:54:44;100101.03;;;21.05;100.00
66560;BME280;53413;49.878;8.142;2022-10-16T13:57:16;100100.06;;;21.06;100.00
66560;BME280;53413;49.878;8.142;2022-10-16T13:59:42;100093.53;;;21.11;100.00
66560;BME280;53413;49.878;8.142;2022-10-16T14:04:54;100099.22;;;21.17;100.00
66560;BME280;53413;49.878;8.142;2022-10-16T14:07:29;100106.34;;;21.28;100.00
66560;BME280;53413;49.878;8.142;2022-10-16T14:10:00;100114.78;;;21.33;100.00
66560;BME280;53413;49.878;8.142;2022-10-16T14:12:26;100109.47;;;21.33;100.00
66560;BME280;53413;49.878;8.142;2022-10-16T14:14:54;100110.28;;;21.45;100.00
66560;BME280;53413;49.878;8.142;2022-10-16T14:17:29;100107.56;;;21.57;100.00
66560;BME280;53413;49.878;8.142;2022-10-16T14:19:58;100107.81;;;21.65;100.00
66560;BME280;53413;49.878;8.142;2022-10-16T14:22:39;100096.59;;;21.71;100.00
66560;BME280;53413;49.878;8.142;2022-10-16T14:27:57;100112.63;;;21.71;100.00
66560;BME280;53413;49.878;8.142;2022-10-16T14:30:24;100113.97;;;21.65;100.00
66560;BME280;53413;49.878;8.142;2022-10-16T14:33:01;100106.50;;;21.59;100.00
66560;BME280;53413;49.878;8.142;2022-10-16T14:35:38;100110.50;;;21.53;100.00
66560;BME280;53413;49.878;8.142;2022-10-16T14:38:06;100106.41;;;21.38;100.00
66560;BME280;53413;49.878;8.142;2022-10-16T14:40:47;100097.97;;;21.33;100.00
66560;BME280;53413;49.878;8.142;2022-10-16T14:43:22;100114.56;;;21.36;100.00
66560;BME280;53413;49.878;8.142;2022-10-16T14:45:52;100112.84;;;21.35;100.00
66560;BME280;53413;49.878;8.142;2022-10-16T14:48:19;100103.03;;;21.36;100.00
66560;BME280;53413;49.878;8.142;2022-10-16T14:50:46;100116.00;;;21.29;100.00
66560;BME280;53413;49.878;8.142;2022-10-16T14:53:12;100107.44;;;21.14;100.00
66560;BME280;53413;49.878;8.142;2022-10-16T14:55:38;100110.91;;;20.94;100.00
66560;BME280;53413;49.878;8.142;2022-10-16T14:58:04;100120.00;;;20.80;100.00
66560;BME280;53413;49.878;8.142;2022-10-16T15:00:29;100124.34;;;20.81;100.00
66560;BME280;53413;49.878;8.142;2022-10-16T15:02:55;100131.47;;;20.91;100.00
66560;BME280;53413;49.878;8.142;2022-10-16T15:05:24;100138.09;;;21.09;100.00